createdAt,value
2019-02-10T00:00:06.460Z,85.20
2019-02-10T00:02:46.740Z,85.40
2019-02-10T00:05:26.777Z,85.50
2019-02-10T00:08:06.672Z,85.40
2019-02-10T00:10:47.060Z,85.60
2019-02-10T00:13:27.349Z,85.70
2019-02-10T00:16:07.675Z,85.90
2019-02-10T00:18:47.968Z,85.50
2019-02-10T00:21:28.015Z,84.90
2019-02-10T00:24:08.092Z,84.60
2019-02-10T00:26:48.246Z,85.10
2019-02-10T00:29:28.360Z,85.50
2019-02-10T00:32:08.344Z,84.70
2019-02-10T00:34:48.675Z,85.20
2019-02-10T00:37:28.736Z,85.50
2019-02-10T00:39:56.339Z,85.80
2019-02-10T00:42:24.039Z,85.60
2019-02-10T00:44:51.741Z,85.30
2019-02-10T00:47:19.503Z,85.00
2019-02-10T00:49:47.090Z,84.70
2019-02-10T00:52:14.707Z,84.20
2019-02-10T00:54:42.323Z,84.10
2019-02-10T00:57:09.934Z,83.90
2019-02-10T00:59:37.496Z,84.40
2019-02-10T01:02:05.301Z,84.40
2019-02-10T01:04:32.873Z,84.40
2019-02-10T01:07:06.290Z,84.00
2019-02-10T01:09:33.884Z,84.30
2019-02-10T01:12:01.505Z,84.80
2019-02-10T01:14:29.125Z,85.10
2019-02-10T01:16:56.727Z,84.80
2019-02-10T01:19:43.721Z,84.50
2019-02-10T01:22:30.739Z,84.40
2019-02-10T01:25:10.496Z,84.70
2019-02-10T01:27:50.772Z,85.10
2019-02-10T01:30:30.876Z,85.50
2019-02-10T01:33:10.988Z,86.30
2019-02-10T01:35:51.057Z,85.50
2019-02-10T01:38:31.317Z,85.70
2019-02-10T01:41:11.576Z,85.50
2019-02-10T01:43:51.671Z,84.60
2019-02-10T01:46:32.000Z,84.20
2019-02-10T01:49:11.984Z,84.50
2019-02-10T01:51:52.240Z,84.80
2019-02-10T01:54:32.187Z,85.00
2019-02-10T01:57:12.268Z,84.60
2019-02-10T01:59:52.473Z,84.90
2019-02-10T02:02:32.485Z,84.80
2019-02-10T02:05:12.714Z,84.70
2019-02-10T02:07:52.889Z,84.80
2019-02-10T02:10:33.284Z,84.70
2019-02-10T02:13:13.517Z,84.30
2019-02-10T02:15:53.836Z,83.70
2019-02-10T02:18:35.270Z,84.40
2019-02-10T02:21:14.868Z,83.80
2019-02-10T02:23:55.289Z,84.10
2019-02-10T02:26:35.222Z,84.30
2019-02-10T02:29:15.476Z,84.40
2019-02-10T02:31:55.554Z,84.50
2019-02-10T02:34:35.624Z,83.90
2019-02-10T02:37:15.775Z,83.60
2019-02-10T02:39:55.825Z,82.90
2019-02-10T02:42:36.140Z,81.00
2019-02-10T02:45:16.204Z,80.50
2019-02-10T02:47:56.346Z,80.50
2019-02-10T02:50:36.423Z,80.10
2019-02-10T02:53:16.568Z,80.00
2019-02-10T02:55:56.688Z,80.00
2019-02-10T02:58:36.598Z,79.40
2019-02-10T03:01:16.665Z,80.10
2019-02-10T03:03:56.789Z,81.60
2019-02-10T03:06:56.418Z,81.90
2019-02-10T03:09:36.053Z,81.90
2019-02-10T03:12:16.299Z,82.00
2019-02-10T03:14:56.611Z,81.10
2019-02-10T03:17:36.412Z,80.90
2019-02-10T03:20:18.270Z,81.10
2019-02-10T03:22:58.704Z,81.50
2019-02-10T03:25:38.914Z,82.00
2019-02-10T03:28:18.777Z,81.50
2019-02-10T03:30:58.795Z,81.40
2019-02-10T03:33:38.674Z,80.40
2019-02-10T03:36:18.908Z,79.80
2019-02-10T03:38:59.284Z,78.70
2019-02-10T03:41:39.363Z,78.30
2019-02-10T03:44:19.409Z,77.90
2019-02-10T03:46:59.584Z,77.80
2019-02-10T03:49:39.810Z,77.60
2019-02-10T03:52:19.886Z,78.00
2019-02-10T03:55:00.052Z,78.00
2019-02-10T03:57:39.888Z,77.70
2019-02-10T04:00:20.154Z,78.40
2019-02-10T04:03:00.433Z,77.80
2019-02-10T04:05:40.883Z,76.90
2019-02-10T04:08:20.752Z,77.50
2019-02-10T04:11:01.132Z,78.30
2019-02-10T04:13:42.061Z,79.10
2019-02-10T04:16:22.585Z,79.40
2019-02-10T04:19:02.681Z,79.00
2019-02-10T04:21:43.111Z,79.80
2019-02-10T04:24:23.033Z,80.40
2019-02-10T04:27:03.129Z,80.60
2019-02-10T04:29:43.432Z,81.20
2019-02-10T04:32:12.480Z,81.20
2019-02-10T04:34:59.689Z,82.30
2019-02-10T04:37:46.720Z,81.80
2019-02-10T04:40:26.414Z,81.80
2019-02-10T04:43:06.517Z,81.00
2019-02-10T04:45:46.797Z,79.80
2019-02-10T04:48:27.028Z,78.90
2019-02-10T04:51:07.099Z,78.40
2019-02-10T04:53:47.410Z,78.60
2019-02-10T04:56:27.234Z,77.60
2019-02-10T04:59:07.172Z,77.50
2019-02-10T05:01:47.196Z,77.50
2019-02-10T05:04:27.533Z,77.00
2019-02-10T05:07:07.895Z,76.80
2019-02-10T05:09:48.096Z,76.60
2019-02-10T05:12:28.358Z,77.10
2019-02-10T05:15:08.612Z,75.20
2019-02-10T05:17:48.653Z,75.80
2019-02-10T05:20:28.977Z,76.70
2019-02-10T05:23:08.981Z,76.60
2019-02-10T05:25:49.059Z,76.60
2019-02-10T05:28:29.100Z,76.70
2019-02-10T05:31:09.324Z,75.60
2019-02-10T05:33:49.921Z,74.30
2019-02-10T05:36:30.788Z,74.60
2019-02-10T05:38:58.620Z,75.00
2019-02-10T05:41:45.620Z,75.30
2019-02-10T05:44:25.834Z,74.70
2019-02-10T05:47:06.077Z,75.60
2019-02-10T05:49:46.329Z,76.60
2019-02-10T05:52:26.573Z,76.90
2019-02-10T05:55:06.452Z,78.00
2019-02-10T05:57:46.581Z,78.50
2019-02-10T06:00:27.867Z,78.80
2019-02-10T06:03:08.070Z,79.20
2019-02-10T06:05:48.156Z,80.00
2019-02-10T06:08:28.340Z,79.90
2019-02-10T06:11:08.308Z,79.90
2019-02-10T06:13:48.422Z,80.60
2019-02-10T06:16:28.557Z,81.00
2019-02-10T06:19:08.594Z,81.30
2019-02-10T06:21:48.672Z,81.60
2019-02-10T06:24:29.025Z,81.80
2019-02-10T06:27:09.710Z,81.90
2019-02-10T06:29:49.329Z,81.90
2019-02-10T06:32:29.452Z,82.50
2019-02-10T06:35:09.556Z,82.40
2019-02-10T06:37:49.452Z,82.60
2019-02-10T06:40:29.962Z,82.50
2019-02-10T06:43:09.971Z,82.30
2019-02-10T06:45:50.362Z,81.90
2019-02-10T06:48:30.474Z,82.10
2019-02-10T06:51:10.843Z,81.80
2019-02-10T06:53:50.770Z,82.00
2019-02-10T06:56:30.779Z,83.00
2019-02-10T07:05:17.492Z,82.80
2019-02-10T07:07:57.353Z,83.10
2019-02-10T07:10:37.760Z,82.30
2019-02-10T07:13:17.597Z,82.20
2019-02-10T07:15:57.633Z,82.10
2019-02-10T07:18:37.414Z,81.50
2019-02-10T07:21:17.576Z,82.20
2019-02-10T07:23:57.962Z,81.60
2019-02-10T07:26:37.624Z,81.50
2019-02-10T07:29:17.731Z,81.70
2019-02-10T07:31:57.776Z,81.50
2019-02-10T07:34:38.028Z,81.00
2019-02-10T07:37:18.268Z,80.20
2019-02-10T07:39:58.190Z,80.20
2019-02-10T07:42:38.546Z,80.00
2019-02-10T07:45:18.872Z,79.20
2019-02-10T07:47:58.588Z,78.20
2019-02-10T07:50:38.549Z,77.50
2019-02-10T07:53:18.715Z,76.70
2019-02-10T07:55:59.064Z,76.90
2019-02-10T07:58:39.212Z,76.50
2019-02-10T08:01:19.204Z,76.50
2019-02-10T08:03:59.201Z,76.40
2019-02-10T08:06:39.158Z,76.50
2019-02-10T08:09:19.180Z,77.60
2019-02-10T08:11:59.196Z,76.30
2019-02-10T08:14:39.068Z,76.00
2019-02-10T08:17:19.340Z,76.30
2019-02-10T08:20:02.014Z,75.70
2019-02-10T08:22:41.721Z,77.20
2019-02-10T08:25:21.703Z,75.50
2019-02-10T08:28:01.738Z,73.60
2019-02-10T08:30:42.117Z,71.00
2019-02-10T08:33:22.017Z,69.40
2019-02-10T08:36:02.915Z,68.10
2019-02-10T08:38:42.684Z,67.10
2019-02-10T08:41:22.852Z,65.50
2019-02-10T08:44:03.033Z,65.40
2019-02-10T08:46:43.809Z,63.80
2019-02-10T08:49:23.490Z,63.90
2019-02-10T08:52:05.068Z,61.80
2019-02-10T08:54:45.569Z,63.30
2019-02-10T08:57:25.758Z,62.70
2019-02-10T09:00:06.506Z,60.20
2019-02-10T09:02:46.627Z,60.80
2019-02-10T09:05:26.651Z,61.60
2019-02-10T09:08:07.652Z,63.50
2019-02-10T09:10:50.927Z,63.30
2019-02-10T09:13:30.986Z,64.00
2019-02-10T09:16:12.556Z,63.90
2019-02-10T09:18:52.420Z,64.00
2019-02-10T09:21:32.733Z,63.60
2019-02-10T09:24:12.903Z,64.10
2019-02-10T09:26:52.728Z,64.00
2019-02-10T09:29:32.855Z,63.30
2019-02-10T09:32:12.790Z,62.90
2019-02-10T09:34:52.821Z,62.40
2019-02-10T09:37:33.291Z,62.30
2019-02-10T09:40:12.976Z,61.30
2019-02-10T09:42:52.983Z,60.90
2019-02-10T09:45:33.507Z,59.80
2019-02-10T09:48:13.236Z,58.40
2019-02-10T09:50:53.440Z,58.00
2019-02-10T09:53:33.704Z,54.10
2019-02-10T09:56:14.088Z,55.70
2019-02-10T09:58:54.200Z,55.90
2019-02-10T10:01:34.414Z,55.30
2019-02-10T10:04:14.573Z,54.60
2019-02-10T10:06:55.273Z,54.20
2019-02-10T10:09:34.968Z,53.30
2019-02-10T10:12:15.024Z,53.10
2019-02-10T10:14:55.038Z,53.30
2019-02-10T10:17:38.711Z,53.70
2019-02-10T10:20:18.244Z,53.50
2019-02-10T10:22:58.421Z,53.50
2019-02-10T10:25:38.535Z,53.30
2019-02-10T10:28:18.495Z,52.80
2019-02-10T10:30:46.800Z,52.00
2019-02-10T10:33:33.797Z,51.50
2019-02-10T10:36:14.034Z,49.90
2019-02-10T10:38:54.089Z,48.80
2019-02-10T10:41:35.498Z,45.80
2019-02-10T10:44:17.089Z,45.00
2019-02-10T10:46:56.873Z,43.00
2019-02-10T10:49:36.852Z,41.90
2019-02-10T10:52:17.232Z,38.40
2019-02-10T10:54:56.923Z,37.70
2019-02-10T10:57:37.144Z,37.00
2019-02-10T11:00:17.337Z,37.60
2019-02-10T11:02:58.056Z,38.50
2019-02-10T11:05:37.812Z,38.20
2019-02-10T11:08:17.936Z,36.60
2019-02-10T11:10:58.064Z,36.50
2019-02-10T11:13:38.068Z,35.00
2019-02-10T11:16:18.415Z,34.90
2019-02-10T11:18:58.600Z,33.20
2019-02-10T11:24:28.917Z,35.20
2019-02-10T11:27:08.919Z,35.90
2019-02-10T11:29:49.478Z,36.10
2019-02-10T11:32:29.224Z,35.90
2019-02-10T11:35:09.531Z,36.40
2019-02-10T11:37:49.308Z,36.90
2019-02-10T11:40:31.170Z,37.80
2019-02-10T11:43:12.018Z,38.00
2019-02-10T11:45:52.448Z,39.10
2019-02-10T11:48:32.824Z,39.60
2019-02-10T11:54:11.753Z,36.40
2019-02-10T11:56:52.001Z,34.00
2019-02-10T11:59:32.103Z,30.10
2019-02-10T12:02:12.166Z,28.80
2019-02-10T12:04:52.328Z,27.20
2019-02-10T12:07:32.472Z,23.80
2019-02-10T12:10:12.388Z,22.60
2019-02-10T12:12:52.926Z,22.10
2019-02-10T12:15:32.862Z,22.60
2019-02-10T12:18:12.988Z,23.60
2019-02-10T12:20:53.056Z,23.30
2019-02-10T12:23:33.196Z,23.00
2019-02-10T12:26:13.288Z,23.10
2019-02-10T12:28:53.408Z,23.30
2019-02-10T12:31:33.445Z,23.10
2019-02-10T12:34:13.572Z,23.40
2019-02-10T12:36:54.491Z,23.60
2019-02-10T12:39:35.001Z,23.40
2019-02-10T12:42:15.368Z,23.60
2019-02-10T12:44:55.324Z,23.50
2019-02-10T12:47:35.536Z,24.10
2019-02-10T12:50:18.079Z,24.60
2019-02-10T12:52:57.948Z,25.20
2019-02-10T12:55:38.275Z,25.20
2019-02-10T12:58:18.332Z,25.40
2019-02-10T13:00:58.137Z,26.00
2019-02-10T13:03:38.547Z,26.80
2019-02-10T13:06:18.417Z,27.40
2019-02-10T13:08:59.020Z,28.30
2019-02-10T13:11:38.675Z,29.10
2019-02-10T13:14:18.473Z,29.50
2019-02-10T13:16:58.472Z,29.90
2019-02-10T13:19:38.733Z,30.20
2019-02-10T13:22:19.175Z,30.90
2019-02-10T13:24:59.156Z,30.80
2019-02-10T13:27:39.616Z,30.70
2019-02-10T13:30:19.644Z,31.40
2019-02-10T13:32:59.876Z,31.60
2019-02-10T13:35:39.828Z,31.90
2019-02-10T13:38:20.056Z,32.00
2019-02-10T13:41:00.062Z,32.90
2019-02-10T13:43:40.447Z,33.60
2019-02-10T13:46:21.464Z,33.70
2019-02-10T13:49:02.080Z,33.60
2019-02-10T13:51:41.748Z,33.40
2019-02-10T13:54:21.729Z,33.20
2019-02-10T13:57:01.935Z,33.40
2019-02-10T13:59:42.157Z,33.30
2019-02-10T14:02:22.412Z,33.20
2019-02-10T14:05:02.420Z,33.20
2019-02-10T14:07:42.724Z,33.50
2019-02-10T14:10:25.564Z,33.60
2019-02-10T14:13:05.117Z,36.20
2019-02-10T14:15:45.269Z,38.60
2019-02-10T14:18:25.512Z,40.20
2019-02-10T14:21:05.565Z,40.90
2019-02-10T14:23:45.871Z,41.20
2019-02-10T14:26:25.909Z,41.20
2019-02-10T14:29:06.043Z,40.70
2019-02-10T14:31:46.723Z,41.30
2019-02-10T14:34:25.141Z,42.20
2019-02-10T14:37:12.188Z,42.40
2019-02-10T14:39:52.452Z,42.80
2019-02-10T14:42:32.708Z,43.20
2019-02-10T14:45:13.012Z,43.30
2019-02-10T14:47:52.855Z,44.00
2019-02-10T14:50:33.010Z,44.60
2019-02-10T14:53:12.959Z,44.80
2019-02-10T14:55:53.005Z,44.60
2019-02-10T14:58:34.353Z,44.90
2019-02-10T15:01:14.332Z,45.10
2019-02-10T15:03:54.424Z,45.00
2019-02-10T15:06:34.726Z,44.70
2019-02-10T15:09:14.698Z,44.90
2019-02-10T15:11:54.670Z,45.40
2019-02-10T15:17:48.004Z,44.50
2019-02-10T15:20:15.914Z,45.60
2019-02-10T15:23:03.217Z,46.10
2019-02-10T15:25:43.130Z,46.60
2019-02-10T15:28:24.729Z,46.00
2019-02-10T15:31:04.573Z,46.50
2019-02-10T15:33:44.857Z,47.60
2019-02-10T15:36:24.940Z,47.20
2019-02-10T15:39:05.305Z,47.20
2019-02-10T15:41:45.484Z,47.00
2019-02-10T15:44:25.957Z,47.30
2019-02-10T15:47:05.812Z,47.50
2019-02-10T15:49:46.009Z,47.90
2019-02-10T15:52:26.181Z,48.40
2019-02-10T15:55:06.503Z,48.80
2019-02-10T15:57:46.424Z,48.80
2019-02-10T16:00:26.597Z,49.30
2019-02-10T16:03:06.666Z,49.90
2019-02-10T16:05:46.999Z,50.30
2019-02-10T16:08:27.540Z,50.40
2019-02-10T16:11:07.367Z,51.00
2019-02-10T16:13:48.108Z,51.30
2019-02-10T16:16:28.850Z,52.10
2019-02-10T16:18:56.798Z,52.20
2019-02-10T16:21:24.377Z,52.20
2019-02-10T16:23:52.540Z,52.90
2019-02-10T16:26:20.185Z,52.80
2019-02-10T16:28:48.688Z,53.20
2019-02-10T16:31:16.371Z,53.10
2019-02-10T16:33:44.004Z,53.30
2019-02-10T16:36:11.671Z,52.90
2019-02-10T16:38:39.266Z,52.60
2019-02-10T16:41:07.006Z,52.20
2019-02-10T16:43:34.587Z,53.00
2019-02-10T16:46:02.190Z,53.80
2019-02-10T16:48:29.822Z,54.20
2019-02-10T16:50:57.399Z,54.00
2019-02-10T16:53:25.076Z,54.10
2019-02-10T16:56:12.156Z,54.70
2019-02-10T16:58:52.329Z,54.90
2019-02-10T17:01:32.425Z,59.20
2019-02-10T17:04:12.869Z,64.90
2019-02-10T17:06:40.499Z,69.90
2019-02-10T17:09:27.753Z,73.40
2019-02-10T17:12:16.350Z,76.20
2019-02-10T17:14:56.284Z,77.10
2019-02-10T17:17:36.380Z,78.90
2019-02-10T17:20:16.692Z,79.40
2019-02-10T17:22:56.664Z,81.20
2019-02-10T17:25:36.893Z,83.30
2019-02-10T17:28:17.032Z,83.50
2019-02-10T17:30:57.205Z,82.80
2019-02-10T17:33:37.115Z,83.00
2019-02-10T17:36:17.381Z,83.90
2019-02-10T17:38:57.331Z,81.10
2019-02-10T17:41:37.915Z,80.80
2019-02-10T17:44:17.790Z,79.90
2019-02-10T17:46:57.738Z,78.60
2019-02-10T17:49:38.009Z,79.10
2019-02-10T17:52:05.690Z,80.70
2019-02-10T17:54:46.209Z,81.20
2019-02-10T17:57:26.264Z,81.10
2019-02-10T18:00:06.526Z,82.70
2019-02-10T18:02:46.706Z,84.20
2019-02-10T18:05:26.700Z,84.90
2019-02-10T18:08:06.874Z,84.20
2019-02-10T18:10:48.159Z,84.00
2019-02-10T18:13:28.322Z,82.50
2019-02-10T18:16:27.826Z,82.90
2019-02-10T18:19:27.134Z,82.70
2019-02-10T18:22:26.480Z,82.90
2019-02-10T18:25:21.304Z,83.20
2019-02-10T18:28:16.968Z,82.80
2019-02-10T18:31:13.908Z,81.80
2019-02-10T18:34:05.313Z,81.30
2019-02-10T18:36:56.738Z,80.00
2019-02-10T18:39:42.404Z,79.80
2019-02-10T18:42:47.936Z,78.20
2019-02-10T18:45:37.203Z,79.00
2019-02-10T18:48:27.269Z,78.10
2019-02-10T18:51:16.232Z,78.50
2019-02-10T18:54:16.052Z,78.20
2019-02-10T18:57:18.235Z,75.80
2019-02-10T19:00:08.220Z,75.20
2019-02-10T19:02:48.107Z,72.30
2019-02-10T19:05:44.294Z,72.10
2019-02-10T19:08:21.855Z,69.40
2019-02-10T19:11:01.344Z,66.30
2019-02-10T19:13:57.312Z,65.90
2019-02-10T19:16:56.194Z,66.70
2019-02-10T19:19:31.699Z,66.90
2019-02-10T19:22:10.777Z,65.20
2019-02-10T19:25:03.529Z,65.30
2019-02-10T19:27:52.074Z,64.40
2019-02-10T19:30:39.380Z,62.20
2019-02-10T19:33:35.602Z,58.90
2019-02-10T19:36:37.759Z,59.60
2019-02-10T19:39:25.403Z,59.10
2019-02-10T19:42:15.472Z,58.90
2019-02-10T19:45:17.384Z,59.00
2019-02-10T19:48:02.656Z,58.50
2019-02-10T19:50:45.413Z,57.30
2019-02-10T19:53:28.833Z,57.20
2019-02-10T19:56:11.708Z,56.80
2019-02-10T19:59:07.822Z,57.30
2019-02-10T20:02:00.627Z,57.20
2019-02-10T20:04:39.276Z,55.60
2019-02-10T20:07:33.547Z,55.70
2019-02-10T20:10:12.919Z,56.10
2019-02-10T20:13:14.803Z,56.80
2019-02-10T20:16:00.195Z,56.60
2019-02-10T20:18:52.832Z,56.60
2019-02-10T20:21:39.875Z,57.80
2019-02-10T20:24:30.077Z,58.80
2019-02-10T20:27:07.613Z,58.30
2019-02-10T20:30:09.515Z,58.20
2019-02-10T20:32:56.592Z,58.30
2019-02-10T20:35:43.721Z,58.30
2019-02-10T20:38:33.458Z,59.00
2019-02-10T20:41:32.432Z,59.30
2019-02-10T20:44:20.510Z,59.20
2019-02-10T20:47:13.410Z,60.20
2019-02-10T20:50:06.532Z,60.00
2019-02-10T20:52:46.357Z,60.30
2019-02-10T20:55:21.336Z,60.40
2019-02-10T20:58:17.320Z,60.80
2019-02-10T21:01:13.148Z,61.50
2019-02-10T21:04:06.534Z,60.10
2019-02-10T21:06:45.044Z,60.30
2019-02-10T21:09:35.156Z,59.70
2019-02-10T21:12:20.410Z,59.10
2019-02-10T21:15:19.492Z,58.10
2019-02-10T21:18:06.611Z,59.00
2019-02-10T21:20:41.592Z,59.60
2019-02-10T21:23:15.300Z,59.60
2019-02-10T21:26:02.760Z,59.50
2019-02-10T21:28:42.615Z,58.90
2019-02-10T21:31:35.668Z,59.10
2019-02-10T21:34:28.675Z,63.40
2019-02-10T21:37:11.113Z,65.70
2019-02-10T21:40:10.550Z,67.50
2019-02-10T21:43:12.690Z,68.40
2019-02-10T21:45:52.259Z,69.50
2019-02-10T21:48:26.000Z,71.60
2019-02-10T21:50:53.655Z,71.60
2019-02-10T21:53:21.276Z,71.90
2019-02-10T21:55:48.971Z,71.20
2019-02-10T21:58:16.550Z,72.10
2019-02-10T22:00:44.212Z,73.20
2019-02-10T22:03:12.018Z,73.80
2019-02-10T22:05:40.048Z,74.50
2019-02-10T22:08:07.696Z,74.50
2019-02-10T22:10:35.304Z,75.40
2019-02-10T22:13:02.896Z,75.40
2019-02-10T22:15:31.008Z,75.90
2019-02-10T22:17:58.580Z,75.70
2019-02-10T22:20:26.191Z,73.80
2019-02-10T22:22:53.784Z,71.90
2019-02-10T22:25:21.388Z,70.70
2019-02-10T22:27:48.959Z,69.90
2019-02-10T22:30:16.851Z,71.20
2019-02-10T22:32:44.409Z,73.30
2019-02-10T22:35:12.096Z,74.60
2019-02-10T22:37:39.676Z,75.10
2019-02-10T22:40:07.856Z,74.80
2019-02-10T22:42:35.591Z,75.30
2019-02-10T22:45:03.798Z,75.90
2019-02-10T22:47:31.352Z,74.90
2019-02-10T22:49:58.963Z,75.20
2019-02-10T22:52:26.691Z,75.40
2019-02-10T22:54:57.468Z,75.30
2019-02-10T22:57:25.095Z,75.60
2019-02-10T22:59:52.680Z,75.70
2019-02-10T23:02:20.266Z,75.90
2019-02-10T23:04:47.904Z,76.30
2019-02-10T23:07:34.981Z,76.50
2019-02-10T23:10:14.623Z,76.70
2019-02-10T23:12:54.752Z,76.50
2019-02-10T23:15:34.876Z,76.40
2019-02-10T23:18:15.037Z,76.70
2019-02-10T23:20:55.202Z,76.70
2019-02-10T23:23:35.221Z,76.40
2019-02-10T23:26:15.672Z,77.10
2019-02-10T23:28:55.332Z,77.50
2019-02-10T23:31:35.485Z,77.70
2019-02-10T23:34:15.568Z,78.00
2019-02-10T23:36:43.341Z,77.70
2019-02-10T23:39:30.351Z,76.40
2019-02-10T23:42:10.828Z,75.00
2019-02-10T23:44:51.084Z,75.40
2019-02-10T23:47:31.149Z,73.70
2019-02-10T23:50:11.419Z,72.60
2019-02-10T23:52:51.552Z,72.10
2019-02-10T23:55:32.009Z,72.30
2019-02-10T23:58:11.719Z,73.30
